createdAt,value
2019-02-17T00:11:13.579Z,98.90
2019-02-17T00:41:18.559Z,99.20
2019-02-17T01:11:23.868Z,98.60
2019-02-17T01:41:29.208Z,98.90
2019-02-17T02:11:34.590Z,99.20
2019-02-17T02:41:40.856Z,98.80
2019-02-17T03:11:46.538Z,99.50
2019-02-17T03:41:51.421Z,99.90
2019-02-17T04:11:58.017Z,99.80
2019-02-17T04:42:03.312Z,98.70
2019-02-17T05:12:08.781Z,98.80
2019-02-17T05:42:13.612Z,99.80
2019-02-17T06:12:18.737Z,99.90
2019-02-17T06:42:23.862Z,99.70
2019-02-17T07:12:29.414Z,99.70
2019-02-17T07:42:34.213Z,99.80
2019-02-17T08:12:39.341Z,98.80
2019-02-17T08:42:44.322Z,97.50
2019-02-17T09:12:49.653Z,96.10
2019-02-17T09:42:54.376Z,93.90
2019-02-17T10:13:01.272Z,89.50
2019-02-17T10:43:06.372Z,89.80
2019-02-17T11:13:11.251Z,90.10
2019-02-17T11:43:16.051Z,87.70
2019-02-17T12:13:21.165Z,86.00
2019-02-17T12:43:26.103Z,84.90
2019-02-17T13:13:31.175Z,84.20
2019-02-17T13:43:36.081Z,84.30
2019-02-17T14:13:41.450Z,82.90
2019-02-17T14:43:46.852Z,85.50
2019-02-17T15:13:51.970Z,87.80
2019-02-17T16:08:29.248Z,87.80
2019-02-17T16:38:34.521Z,91.40
2019-02-17T17:08:39.808Z,92.30
2019-02-17T17:38:45.942Z,93.30
2019-02-17T18:08:50.873Z,93.00
2019-02-17T18:38:56.025Z,92.90
2019-02-17T19:09:00.799Z,93.10
2019-02-17T19:39:06.712Z,94.20
2019-02-17T20:09:15.346Z,94.90
2019-02-17T20:39:20.076Z,95.40
2019-02-17T21:09:25.021Z,95.40
2019-02-17T21:39:30.117Z,96.30
2019-02-17T22:09:34.972Z,96.90
2019-02-17T22:39:39.848Z,97.80
2019-02-17T23:09:45.133Z,98.40
2019-02-17T23:39:50.321Z,98.50
